Wetterdaten: Woche 03.02.14 - 09.02.14 (KW6)
Datum Zeit Temp. Aussen +5cm Feuchte Auss Luftdruck Regen Sonnenschein Regendauer UV Solar Windben
03.02.2014 00:00 1,0 C -0,9 C 93 % 1016,6 hPa 0,0 l/m 0,00 h 0,00 h 0,0 UV-I 0 W/m 3,6 km/h (1 Bft)
03.02.2014 01:00 0,5 C -1,4 C 94 % 1016,2 hPa 0,0 l/m 0,00 h 0,00 h 0,0 UV-I 0 W/m 0,9 km/h (0 Bft)
03.02.2014 02:00 -0,1 C -2,3 C 95 % 1016,3 hPa 0,0 l/m 0,00 h 0,00 h 0,0 UV-I 0 W/m 0,1 km/h (0 Bft)
03.02.2014 03:00 -0,5 C -2,8 C 95 % 1016,2 hPa 0,0 l/m 0,00 h 0,00 h 0,0 UV-I 0 W/m 0,1 km/h (0 Bft)
03.02.2014 04:00 -0,2 C -2,0 C 96 % 1015,8 hPa 0,0 l/m 0,00 h 0,00 h 0,0 UV-I 0 W/m 2,3 km/h (1 Bft)
03.02.2014 05:00 -0,4 C -2,2 C 96 % 1015,7 hPa 0,0 l/m 0,00 h 0,00 h 0,0 UV-I 0 W/m 1,5 km/h (1 Bft)
03.02.2014 06:00 -0,5 C -2,3 C 96 % 1015,4 hPa 0,0 l/m 0,00 h 0,00 h 0,0 UV-I 0 W/m 2,0 km/h (1 Bft)
03.02.2014 07:00 -0,6 C -2,7 C 96 % 1015,0 hPa 0,0 l/m 0,00 h 0,00 h 0,0 UV-I 0 W/m 0,3 km/h (0 Bft)
03.02.2014 08:00 -0,8 C -2,8 C 96 % 1014,4 hPa 0,0 l/m 0,00 h 0,00 h 0,0 UV-I 13 W/m 0,3 km/h (0 Bft)
03.02.2014 09:00 0,3 C -1,5 C 96 % 1014,0 hPa 0,0 l/m 0,53 h 0,00 h 0,0 UV-I 83 W/m 1,6 km/h (1 Bft)
03.02.2014 10:00 2,6 C 0,8 C 92 % 1013,4 hPa 0,2 l/m 1,00 h 0,00 h 0,0 UV-I 209 W/m 9,2 km/h (2 Bft)
03.02.2014 11:00 4,7 C 2,6 C 83 % 1012,4 hPa 0,0 l/m 1,00 h 0,00 h 0,0 UV-I 289 W/m 10,4 km/h (2 Bft)
03.02.2014 12:00 6,0 C 4,2 C 80 % 1011,4 hPa 0,0 l/m 1,00 h 0,00 h 0,0 UV-I 329 W/m 14,0 km/h (3 Bft)
03.02.2014 13:00 6,5 C 4,8 C 79 % 1010,3 hPa 0,0 l/m 1,00 h 0,00 h 0,0 UV-I 316 W/m 13,3 km/h (3 Bft)
03.02.2014 14:00 6,7 C 5,5 C 79 % 1009,0 hPa 0,0 l/m 1,00 h 0,00 h 0,0 UV-I 273 W/m 14,9 km/h (3 Bft)
03.02.2014 15:00 6,4 C 4,9 C 80 % 1008,2 hPa 0,0 l/m 0,90 h 0,00 h 0,0 UV-I 173 W/m 15,4 km/h (3 Bft)
03.02.2014 16:00 5,3 C 3,7 C 83 % 1007,5 hPa 0,0 l/m 0,20 h 0,00 h 0,0 UV-I 45 W/m 15,5 km/h (3 Bft)
03.02.2014 17:00 4,7 C 3,2 C 86 % 1007,0 hPa 0,0 l/m 0,27 h 0,00 h 0,0 UV-I 17 W/m 10,1 km/h (2 Bft)
03.02.2014 18:00 4,8 C 3,3 C 84 % 1007,1 hPa 0,0 l/m 0,00 h 0,00 h 0,0 UV-I 0 W/m 19,8 km/h (4 Bft)
03.02.2014 19:00 4,8 C 3,3 C 85 % 1006,6 hPa 0,0 l/m 0,00 h 0,00 h 0,0 UV-I 0 W/m 14,0 km/h (3 Bft)
03.02.2014 20:00 4,6 C 3,3 C 87 % 1006,2 hPa 0,0 l/m 0,00 h 0,00 h 0,0 UV-I 0 W/m 17,4 km/h (3 Bft)
03.02.2014 21:00 4,5 C 3,2 C 87 % 1005,8 hPa 0,0 l/m 0,00 h 0,00 h 0,0 UV-I 0 W/m 17,8 km/h (3 Bft)
03.02.2014 22:00 4,3 C 2,8 C 88 % 1005,7 hPa 0,0 l/m 0,00 h 0,00 h 0,0 UV-I 0 W/m 20,6 km/h (4 Bft)
03.02.2014 23:00 4,1 C 2,7 C 87 % 1005,7 hPa 0,0 l/m 0,00 h 0,00 h 0,0 UV-I 0 W/m 21,1 km/h (4 Bft)
04.02.2014 00:00 4,0 C 2,7 C 87 % 1005,5 hPa 0,0 l/m 0,00 h 0,00 h 0,0 UV-I 0 W/m 16,6 km/h (3 Bft)
04.02.2014 01:00 3,9 C 2,6 C 87 % 1005,2 hPa 0,0 l/m 0,00 h 0,00 h 0,0 UV-I 0 W/m 15,4 km/h (3 Bft)
04.02.2014 02:00 3,8 C 2,2 C 88 % 1005,1 hPa 0,0 l/m 0,00 h 0,00 h 0,0 UV-I 0 W/m 18,8 km/h (3 Bft)
04.02.2014 03:00 4,0 C 2,7 C 88 % 1005,0 hPa 0,0 l/m 0,00 h 0,00 h 0,0 UV-I 0 W/m 24,1 km/h (4 Bft)
04.02.2014 04:00 3,9 C 2,4 C 88 % 1005,4 hPa 0,0 l/m 0,00 h 0,00 h 0,0 UV-I 0 W/m 15,8 km/h (3 Bft)
04.02.2014 05:00 3,4 C 1,8 C 90 % 1005,5 hPa 0,0 l/m 0,00 h 0,00 h 0,0 UV-I 0 W/m 16,0 km/h (3 Bft)
04.02.2014 06:00 3,2 C 1,6 C 90 % 1005,6 hPa 0,0 l/m 0,00 h 0,00 h 0,0 UV-I 0 W/m 15,9 km/h (3 Bft)
04.02.2014 07:00 3,1 C 1,7 C 90 % 1006,3 hPa 0,0 l/m 0,00 h 0,00 h 0,0 UV-I 0 W/m 15,3 km/h (3 Bft)
04.02.2014 08:00 3,5 C 2,4 C 90 % 1007,0 hPa 0,0 l/m 0,00 h 0,00 h 0,0 UV-I 18 W/m 11,1 km/h (2 Bft)
04.02.2014 09:00 5,1 C 4,1 C 87 % 1007,5 hPa 0,0 l/m 0,23 h 0,00 h 0,0 UV-I 63 W/m 12,9 km/h (3 Bft)
04.02.2014 10:00 6,3 C 5,2 C 83 % 1008,2 hPa 0,0 l/m 0,00 h 0,00 h 0,0 UV-I 74 W/m 10,8 km/h (2 Bft)
04.02.2014 11:00 7,6 C 7,0 C 78 % 1008,7 hPa 0,0 l/m 0,10 h 0,00 h 0,0 UV-I 130 W/m 7,9 km/h (2 Bft)
04.02.2014 12:00 8,7 C 7,8 C 74 % 1008,7 hPa 0,0 l/m 0,57 h 0,00 h 0,0 UV-I 226 W/m 13,2 km/h (3 Bft)
04.02.2014 13:00 9,4 C 8,6 C 71 % 1008,6 hPa 0,0 l/m 0,73 h 0,00 h 0,0 UV-I 266 W/m 10,7 km/h (2 Bft)
04.02.2014 14:00 9,3 C 8,2 C 70 % 1008,3 hPa 0,0 l/m 0,30 h 0,00 h 0,0 UV-I 170 W/m 11,5 km/h (2 Bft)
04.02.2014 15:00 9,2 C 7,8 C 69 % 1007,8 hPa 0,0 l/m 0,77 h 0,00 h 0,0 UV-I 187 W/m 15,3 km/h (3 Bft)
04.02.2014 16:00 8,2 C 6,2 C 73 % 1007,5 hPa 0,0 l/m 0,23 h 0,00 h 0,0 UV-I 47 W/m 15,4 km/h (3 Bft)
04.02.2014 17:00 6,9 C 4,5 C 78 % 1007,5 hPa 0,0 l/m 0,00 h 0,00 h 0,0 UV-I 10 W/m 6,9 km/h (2 Bft)
04.02.2014 18:00 6,0 C 3,4 C 80 % 1007,1 hPa 0,0 l/m 0,00 h 0,00 h 0,0 UV-I 0 W/m 8,5 km/h (2 Bft)
04.02.2014 19:00 5,3 C 3,0 C 82 % 1006,4 hPa 0,0 l/m 0,00 h 0,00 h 0,0 UV-I 0 W/m 9,7 km/h (2 Bft)
04.02.2014 20:00 5,2 C 3,2 C 82 % 1005,7 hPa 0,0 l/m 0,00 h 0,00 h 0,0 UV-I 0 W/m 16,9 km/h (3 Bft)
04.02.2014 21:00 4,6 C 2,5 C 84 % 1005,3 hPa 0,0 l/m 0,00 h 0,00 h 0,0 UV-I 0 W/m 11,7 km/h (2 Bft)
04.02.2014 22:00 4,0 C 2,2 C 88 % 1004,9 hPa 0,0 l/m 0,00 h 0,00 h 0,0 UV-I 0 W/m 13,6 km/h (3 Bft)
04.02.2014 23:00 3,7 C 1,8 C 90 % 1003,7 hPa 0,0 l/m 0,00 h 0,00 h 0,0 UV-I 0 W/m 13,8 km/h (3 Bft)
05.02.2014 00:00 3,8 C 2,2 C 90 % 1002,8 hPa 0,0 l/m 0,00 h 0,00 h 0,0 UV-I 0 W/m 18,7 km/h (3 Bft)
05.02.2014 01:00 3,8 C 2,1 C 90 % 1001,8 hPa 0,0 l/m 0,00 h 0,00 h 0,0 UV-I 0 W/m 19,1 km/h (3 Bft)
05.02.2014 02:00 3,5 C 1,9 C 91 % 1000,7 hPa 0,0 l/m 0,00 h 0,00 h 0,0 UV-I 0 W/m 20,3 km/h (4 Bft)
05.02.2014 03:00 3,7 C 2,2 C 90 % 999,3 hPa 0,0 l/m 0,00 h 0,00 h 0,0 UV-I 0 W/m 26,5 km/h (4 Bft)
05.02.2014 04:00 3,8 C 2,2 C 89 % 998,2 hPa 0,0 l/m 0,00 h 0,00 h 0,0 UV-I 0 W/m 23,9 km/h (4 Bft)
05.02.2014 05:00 4,0 C 2,3 C 88 % 997,6 hPa 0,0 l/m 0,00 h 0,00 h 0,0 UV-I 0 W/m 25,4 km/h (4 Bft)
05.02.2014 06:00 4,3 C 2,8 C 87 % 996,7 hPa 0,0 l/m 0,00 h 0,00 h 0,0 UV-I 0 W/m 27,8 km/h (4 Bft)
05.02.2014 07:00 4,4 C 3,1 C 86 % 996,4 hPa 0,0 l/m 0,00 h 0,03 h 0,0 UV-I 0 W/m 25,6 km/h (4 Bft)
05.02.2014 08:00 4,6 C 2,6 C 87 % 996,3 hPa 0,2 l/m 0,00 h 0,87 h 0,0 UV-I 10 W/m 26,5 km/h (4 Bft)
05.02.2014 09:00 5,2 C 3,2 C 88 % 996,1 hPa 0,0 l/m 0,00 h 0,50 h 0,0 UV-I 45 W/m 25,3 km/h (4 Bft)
05.02.2014 10:00 6,1 C 4,6 C 84 % 996,1 hPa 0,0 l/m 0,10 h 0,00 h 0,0 UV-I 116 W/m 28,0 km/h (4 Bft)
05.02.2014 11:00 7,5 C 5,9 C 81 % 995,6 hPa 0,0 l/m 0,87 h 0,00 h 0,0 UV-I 275 W/m 26,6 km/h (4 Bft)
05.02.2014 12:00 7,7 C 6,7 C 81 % 995,2 hPa 0,0 l/m 0,43 h 0,00 h 0,0 UV-I 250 W/m 28,6 km/h (4 Bft)
05.02.2014 13:00 7,2 C 6,6 C 83 % 994,7 hPa 0,0 l/m 0,00 h 0,00 h 0,0 UV-I 94 W/m 24,5 km/h (4 Bft)
05.02.2014 14:00 7,2 C 6,3 C 83 % 994,1 hPa 0,0 l/m 0,00 h 0,10 h 0,0 UV-I 59 W/m 19,3 km/h (3 Bft)
05.02.2014 15:00 7,5 C 5,9 C 85 % 994,0 hPa 0,2 l/m 0,00 h 0,33 h 0,0 UV-I 54 W/m 22,7 km/h (4 Bft)
05.02.2014 16:00 7,9 C 6,5 C 80 % 994,2 hPa 0,0 l/m 0,00 h 0,00 h 0,0 UV-I 35 W/m 28,2 km/h (4 Bft)
05.02.2014 17:00 7,3 C 5,6 C 81 % 995,0 hPa 0,0 l/m 0,00 h 0,00 h 0,0 UV-I 7 W/m 19,1 km/h (3 Bft)
05.02.2014 18:00 6,3 C 4,2 C 84 % 995,5 hPa 0,0 l/m 0,00 h 0,00 h 0,0 UV-I 0 W/m 17,7 km/h (3 Bft)
05.02.2014 19:00 6,0 C 3,9 C 85 % 995,6 hPa 0,0 l/m 0,00 h 0,00 h 0,0 UV-I 0 W/m 18,1 km/h (3 Bft)
05.02.2014 20:00 6,0 C 4,2 C 84 % 995,9 hPa 0,0 l/m 0,00 h 0,00 h 0,0 UV-I 0 W/m 17,0 km/h (3 Bft)
05.02.2014 21:00 7,2 C 5,3 C 80 % 996,3 hPa 0,0 l/m 0,00 h 0,00 h 0,0 UV-I 0 W/m 18,3 km/h (3 Bft)
05.02.2014 22:00 8,1 C 6,3 C 77 % 996,8 hPa 0,0 l/m 0,00 h 0,00 h 0,0 UV-I 0 W/m 24,8 km/h (4 Bft)
05.02.2014 23:00 7,9 C 6,1 C 79 % 997,5 hPa 0,0 l/m 0,00 h 0,00 h 0,0 UV-I 0 W/m 24,8 km/h (4 Bft)
06.02.2014 00:00 7,7 C 6,0 C 82 % 998,1 hPa 0,0 l/m 0,00 h 0,00 h 0,0 UV-I 0 W/m 23,3 km/h (4 Bft)
06.02.2014 01:00 7,8 C 6,1 C 82 % 998,8 hPa 0,0 l/m 0,00 h 0,00 h 0,0 UV-I 0 W/m 24,0 km/h (4 Bft)
06.02.2014 02:00 7,8 C 6,1 C 83 % 999,7 hPa 0,0 l/m 0,00 h 0,00 h 0,0 UV-I 0 W/m 19,4 km/h (3 Bft)
06.02.2014 03:00 7,9 C 6,1 C 82 % 1000,3 hPa 0,0 l/m 0,00 h 0,17 h 0,0 UV-I 0 W/m 17,6 km/h (3 Bft)
06.02.2014 04:00 7,1 C 5,2 C 85 % 1001,1 hPa 0,0 l/m 0,00 h 0,40 h 0,0 UV-I 0 W/m 16,8 km/h (3 Bft)
06.02.2014 05:00 6,3 C 4,5 C 88 % 1001,3 hPa 0,0 l/m 0,00 h 0,00 h 0,0 UV-I 0 W/m 7,5 km/h (2 Bft)
06.02.2014 06:00 7,0 C 5,3 C 82 % 1001,7 hPa 0,0 l/m 0,00 h 0,00 h 0,0 UV-I 0 W/m 14,3 km/h (3 Bft)
06.02.2014 07:00 6,7 C 4,9 C 81 % 1002,2 hPa 0,0 l/m 0,00 h 0,00 h 0,0 UV-I 0 W/m 9,9 km/h (2 Bft)
06.02.2014 08:00 6,2 C 4,1 C 84 % 1002,7 hPa 0,0 l/m 0,00 h 0,00 h 0,0 UV-I 19 W/m 7,5 km/h (2 Bft)
06.02.2014 09:00 6,8 C 5,3 C 82 % 1003,4 hPa 0,0 l/m 0,43 h 0,00 h 0,0 UV-I 95 W/m 11,8 km/h (2 Bft)
06.02.2014 10:00 8,2 C 7,0 C 77 % 1003,7 hPa 0,0 l/m 0,70 h 0,00 h 0,0 UV-I 180 W/m 16,8 km/h (3 Bft)
06.02.2014 11:00 9,2 C 7,8 C 73 % 1003,8 hPa 0,0 l/m 0,93 h 0,00 h 0,0 UV-I 301 W/m 25,9 km/h (4 Bft)
06.02.2014 12:00 10,0 C 8,8 C 71 % 1003,7 hPa 0,0 l/m 0,80 h 0,00 h 0,0 UV-I 296 W/m 23,0 km/h (4 Bft)
06.02.2014 13:00 10,2 C 9,2 C 70 % 1003,3 hPa 0,0 l/m 0,03 h 0,00 h 0,0 UV-I 131 W/m 18,6 km/h (3 Bft)
06.02.2014 14:00 10,3 C 9,6 C 70 % 1002,2 hPa 0,0 l/m 0,17 h 0,00 h 0,0 UV-I 151 W/m 15,4 km/h (3 Bft)
06.02.2014 15:00 10,1 C 9,0 C 69 % 1001,2 hPa 0,0 l/m 0,00 h 0,00 h 0,0 UV-I 87 W/m 17,1 km/h (3 Bft)
06.02.2014 16:00 9,6 C 8,0 C 71 % 1000,2 hPa 0,0 l/m 0,00 h 0,00 h 0,0 UV-I 24 W/m 19,5 km/h (3 Bft)
06.02.2014 17:00 8,6 C 6,0 C 79 % 999,2 hPa 0,2 l/m 0,00 h 0,93 h 0,0 UV-I 5 W/m 24,5 km/h (4 Bft)
06.02.2014 18:00 7,0 C 4,9 C 90 % 998,3 hPa 2,4 l/m 0,00 h 1,00 h 0,0 UV-I 0 W/m 25,7 km/h (4 Bft)
06.02.2014 19:00 6,4 C 4,4 C 93 % 996,6 hPa 1,0 l/m 0,00 h 0,97 h 0,0 UV-I 0 W/m 23,2 km/h (4 Bft)
06.02.2014 20:00 6,4 C 4,7 C 94 % 995,3 hPa 0,4 l/m 0,00 h 0,93 h 0,0 UV-I 0 W/m 29,3 km/h (5 Bft)
06.02.2014 21:00 6,8 C 4,7 C 92 % 994,0 hPa 0,0 l/m 0,00 h 0,30 h 0,0 UV-I 0 W/m 26,9 km/h (4 Bft)
06.02.2014 22:00 7,4 C 5,0 C 87 % 993,1 hPa 0,0 l/m 0,00 h 0,00 h 0,0 UV-I 0 W/m 25,6 km/h (4 Bft)
06.02.2014 23:00 8,6 C 5,0 C 79 % 992,0 hPa 0,0 l/m 0,00 h 0,00 h 0,0 UV-I 0 W/m 26,1 km/h (4 Bft)
07.02.2014 00:00 8,7 C 5,5 C 78 % 991,1 hPa 0,0 l/m 0,00 h 0,00 h 0,0 UV-I 0 W/m 21,3 km/h (4 Bft)
07.02.2014 01:00 8,9 C 6,6 C 78 % 990,3 hPa 0,0 l/m 0,00 h 0,07 h 0,0 UV-I 0 W/m 23,4 km/h (4 Bft)
07.02.2014 02:00 9,5 C 6,7 C 77 % 989,5 hPa 0,2 l/m 0,00 h 0,73 h 0,0 UV-I 0 W/m 25,2 km/h (4 Bft)
07.02.2014 03:00 9,3 C 6,3 C 80 % 989,1 hPa 0,4 l/m 0,00 h 0,83 h 0,0 UV-I 0 W/m 22,0 km/h (4 Bft)
07.02.2014 04:00 9,3 C 6,7 C 88 % 988,8 hPa 1,2 l/m 0,00 h 0,80 h 0,0 UV-I 0 W/m 18,9 km/h (3 Bft)
07.02.2014 05:00 9,5 C 6,7 C 89 % 988,3 hPa 0,0 l/m 0,00 h 0,00 h 0,0 UV-I 0 W/m 12,9 km/h (3 Bft)
07.02.2014 06:00 10,3 C 7,2 C 81 % 988,0 hPa 0,0 l/m 0,00 h 0,00 h 0,0 UV-I 0 W/m 22,7 km/h (4 Bft)
07.02.2014 07:00 10,6 C 7,9 C 77 % 987,0 hPa 0,0 l/m 0,00 h 0,00 h 0,0 UV-I 0 W/m 24,6 km/h (4 Bft)
07.02.2014 08:00 10,7 C 8,6 C 76 % 986,1 hPa 0,0 l/m 0,00 h 0,00 h 0,0 UV-I 10 W/m 26,1 km/h (4 Bft)
07.02.2014 09:00 11,8 C 9,7 C 73 % 985,6 hPa 0,0 l/m 0,10 h 0,00 h 0,0 UV-I 45 W/m 28,8 km/h (5 Bft)
07.02.2014 10:00 12,0 C 10,3 C 74 % 986,3 hPa 0,2 l/m 0,50 h 0,67 h 0,0 UV-I 163 W/m 46,5 km/h (6 Bft)
07.02.2014 11:00 10,3 C 8,5 C 82 % 988,2 hPa 0,0 l/m 0,00 h 1,00 h 0,0 UV-I 128 W/m 43,1 km/h (6 Bft)
07.02.2014 12:00 8,9 C 7,3 C 85 % 989,7 hPa 0,0 l/m 0,00 h 0,43 h 0,0 UV-I 65 W/m 44,7 km/h (6 Bft)
07.02.2014 13:00 8,1 C 6,5 C 86 % 991,3 hPa 0,2 l/m 0,00 h 0,60 h 0,0 UV-I 42 W/m 35,7 km/h (5 Bft)
07.02.2014 14:00 7,1 C 5,4 C 91 % 993,3 hPa 1,0 l/m 0,00 h 1,00 h 0,0 UV-I 47 W/m 32,6 km/h (5 Bft)
07.02.2014 15:00 6,1 C 4,5 C 93 % 995,7 hPa 0,6 l/m 0,00 h 0,93 h 0,0 UV-I 41 W/m 28,0 km/h (4 Bft)
07.02.2014 16:00 5,6 C 3,9 C 93 % 997,7 hPa 0,6 l/m 0,00 h 1,00 h 0,0 UV-I 14 W/m 26,5 km/h (4 Bft)
07.02.2014 17:00 5,4 C 3,9 C 94 % 999,0 hPa 0,6 l/m 0,00 h 0,93 h 0,0 UV-I 6 W/m 19,2 km/h (3 Bft)
07.02.2014 18:00 5,8 C 3,9 C 93 % 1000,0 hPa 0,0 l/m 0,00 h 0,03 h 0,0 UV-I 0 W/m 15,3 km/h (3 Bft)
07.02.2014 19:00 5,9 C 3,8 C 91 % 1000,8 hPa 0,0 l/m 0,00 h 0,00 h 0,0 UV-I 0 W/m 10,6 km/h (2 Bft)
07.02.2014 20:00 5,9 C 3,4 C 89 % 1001,3 hPa 0,0 l/m 0,00 h 0,00 h 0,0 UV-I 0 W/m 13,6 km/h (3 Bft)
07.02.2014 21:00 5,6 C 3,3 C 88 % 1001,4 hPa 0,0 l/m 0,00 h 0,00 h 0,0 UV-I 0 W/m 16,5 km/h (3 Bft)
07.02.2014 22:00 5,2 C 3,1 C 88 % 1001,7 hPa 0,0 l/m 0,00 h 0,00 h 0,0 UV-I 0 W/m 15,4 km/h (3 Bft)
07.02.2014 23:00 4,8 C 3,1 C 87 % 1001,3 hPa 0,0 l/m 0,00 h 0,00 h 0,0 UV-I 0 W/m 11,7 km/h (2 Bft)
08.02.2014 00:00 4,5 C 2,5 C 87 % 1000,3 hPa 0,0 l/m 0,00 h 0,00 h 0,0 UV-I 0 W/m 9,3 km/h (2 Bft)
08.02.2014 01:00 3,6 C 1,7 C 88 % 999,5 hPa 0,0 l/m 0,00 h 0,00 h 0,0 UV-I 0 W/m 5,8 km/h (2 Bft)
08.02.2014 02:00 3,3 C 1,7 C 88 % 998,4 hPa 0,0 l/m 0,00 h 0,00 h 0,0 UV-I 0 W/m 14,1 km/h (3 Bft)
08.02.2014 03:00 3,4 C 2,2 C 90 % 997,7 hPa 0,0 l/m 0,00 h 0,00 h 0,0 UV-I 0 W/m 12,9 km/h (3 Bft)
08.02.2014 04:00 4,7 C 3,6 C 89 % 996,6 hPa 0,0 l/m 0,00 h 0,00 h 0,0 UV-I 0 W/m 18,5 km/h (3 Bft)
08.02.2014 05:00 5,4 C 3,9 C 86 % 995,4 hPa 0,0 l/m 0,00 h 0,00 h 0,0 UV-I 0 W/m 16,6 km/h (3 Bft)
08.02.2014 06:00 5,7 C 4,1 C 86 % 994,2 hPa 0,0 l/m 0,00 h 0,00 h 0,0 UV-I 0 W/m 17,5 km/h (3 Bft)
08.02.2014 07:00 6,1 C 4,6 C 86 % 993,3 hPa 0,0 l/m 0,00 h 0,00 h 0,0 UV-I 0 W/m 16,9 km/h (3 Bft)
08.02.2014 08:00 7,5 C 6,0 C 81 % 992,6 hPa 0,0 l/m 0,00 h 0,17 h 0,0 UV-I 14 W/m 23,0 km/h (4 Bft)
08.02.2014 09:00 7,5 C 5,5 C 81 % 991,8 hPa 0,2 l/m 0,00 h 0,53 h 0,0 UV-I 31 W/m 24,2 km/h (4 Bft)
08.02.2014 10:00 7,0 C 4,7 C 87 % 991,3 hPa 0,4 l/m 0,00 h 0,87 h 0,0 UV-I 44 W/m 18,3 km/h (3 Bft)
08.02.2014 11:00 7,8 C 5,5 C 85 % 990,5 hPa 0,4 l/m 0,00 h 1,00 h 0,0 UV-I 54 W/m 20,6 km/h (4 Bft)
08.02.2014 12:00 8,3 C 5,9 C 84 % 989,7 hPa 0,0 l/m 0,00 h 0,57 h 0,0 UV-I 51 W/m 22,5 km/h (4 Bft)
08.02.2014 13:00 9,1 C 6,5 C 80 % 989,1 hPa 0,2 l/m 0,00 h 0,60 h 0,0 UV-I 45 W/m 20,3 km/h (4 Bft)
08.02.2014 14:00 9,0 C 6,7 C 79 % 988,6 hPa 0,0 l/m 0,00 h 0,33 h 0,0 UV-I 46 W/m 21,4 km/h (4 Bft)
08.02.2014 15:00 8,5 C 5,8 C 82 % 988,5 hPa 0,4 l/m 0,00 h 0,83 h 0,0 UV-I 26 W/m 19,5 km/h (3 Bft)
08.02.2014 16:00 7,5 C 5,1 C 86 % 988,1 hPa 0,0 l/m 0,00 h 0,33 h 0,0 UV-I 19 W/m 23,3 km/h (4 Bft)
08.02.2014 17:00 7,5 C 5,3 C 83 % 988,1 hPa 0,0 l/m 0,00 h 0,00 h 0,0 UV-I 7 W/m 22,8 km/h (4 Bft)
08.02.2014 18:00 7,2 C 5,0 C 83 % 988,1 hPa 0,0 l/m 0,00 h 0,00 h 0,0 UV-I 0 W/m 20,3 km/h (4 Bft)
08.02.2014 19:00 6,9 C 4,8 C 84 % 988,0 hPa 0,0 l/m 0,00 h 0,00 h 0,0 UV-I 0 W/m 18,3 km/h (3 Bft)
08.02.2014 20:00 6,9 C 4,9 C 83 % 988,0 hPa 0,0 l/m 0,00 h 0,00 h 0,0 UV-I 0 W/m 15,3 km/h (3 Bft)
08.02.2014 21:00 7,0 C 5,1 C 83 % 987,9 hPa 0,0 l/m 0,00 h 0,00 h 0,0 UV-I 0 W/m 17,3 km/h (3 Bft)
08.02.2014 22:00 7,1 C 5,0 C 81 % 987,9 hPa 0,0 l/m 0,00 h 0,13 h 0,0 UV-I 0 W/m 18,9 km/h (3 Bft)
08.02.2014 23:00 6,3 C 4,2 C 80 % 988,4 hPa 0,0 l/m 0,00 h 0,10 h 0,0 UV-I 0 W/m 22,6 km/h (4 Bft)
09.02.2014 00:00 5,9 C 3,9 C 77 % 988,6 hPa 0,0 l/m 0,00 h 0,00 h 0,0 UV-I 0 W/m 17,2 km/h (3 Bft)
09.02.2014 01:00 5,8 C 4,1 C 77 % 989,1 hPa 0,0 l/m 0,00 h 0,00 h 0,0 UV-I 0 W/m 19,3 km/h (3 Bft)
09.02.2014 02:00 6,3 C 4,8 C 77 % 989,0 hPa 0,0 l/m 0,00 h 0,00 h 0,0 UV-I 0 W/m 24,0 km/h (4 Bft)
09.02.2014 03:00 6,3 C 4,5 C 79 % 989,1 hPa 0,0 l/m 0,00 h 0,37 h 0,0 UV-I 0 W/m 23,9 km/h (4 Bft)
09.02.2014 04:00 6,2 C 4,4 C 79 % 989,5 hPa 0,0 l/m 0,00 h 0,00 h 0,0 UV-I 0 W/m 22,9 km/h (4 Bft)
09.02.2014 05:00 6,1 C 4,4 C 79 % 989,9 hPa 0,0 l/m 0,00 h 0,00 h 0,0 UV-I 0 W/m 23,9 km/h (4 Bft)
09.02.2014 06:00 6,0 C 4,4 C 78 % 990,2 hPa 0,0 l/m 0,00 h 0,00 h 0,0 UV-I 0 W/m 20,8 km/h (4 Bft)
09.02.2014 07:00 5,8 C 4,2 C 76 % 990,9 hPa 0,0 l/m 0,00 h 0,00 h 0,0 UV-I 0 W/m 21,8 km/h (4 Bft)
09.02.2014 08:00 5,7 C 4,1 C 75 % 991,3 hPa 0,0 l/m 0,00 h 0,00 h 0,0 UV-I 22 W/m 20,2 km/h (4 Bft)
09.02.2014 09:00 6,0 C 4,8 C 74 % 991,5 hPa 0,0 l/m 0,40 h 0,00 h 0,0 UV-I 108 W/m 24,5 km/h (4 Bft)
09.02.2014 10:00 6,7 C 5,6 C 71 % 991,6 hPa 0,0 l/m 0,13 h 0,00 h 0,0 UV-I 126 W/m 30,7 km/h (5 Bft)
09.02.2014 11:00 7,2 C 6,4 C 69 % 991,9 hPa 0,0 l/m 0,40 h 0,00 h 0,0 UV-I 201 W/m 33,3 km/h (5 Bft)
09.02.2014 12:00 7,1 C 6,1 C 69 % 992,4 hPa 0,0 l/m 0,00 h 0,00 h 0,0 UV-I 126 W/m 32,9 km/h (5 Bft)
09.02.2014 13:00 7,5 C 6,8 C 68 % 992,7 hPa 0,0 l/m 0,13 h 0,00 h 0,0 UV-I 167 W/m 29,8 km/h (5 Bft)
09.02.2014 14:00 7,6 C 6,7 C 66 % 992,9 hPa 0,0 l/m 0,03 h 0,00 h 0,0 UV-I 124 W/m 30,7 km/h (5 Bft)
09.02.2014 15:00 7,4 C 6,3 C 67 % 993,5 hPa 0,0 l/m 0,00 h 0,00 h 0,0 UV-I 82 W/m 26,9 km/h (4 Bft)
09.02.2014 16:00 7,3 C 6,0 C 68 % 993,8 hPa 0,0 l/m 0,00 h 0,00 h 0,0 UV-I 37 W/m 20,5 km/h (4 Bft)
09.02.2014 17:00 7,2 C 5,6 C 68 % 994,1 hPa 0,0 l/m 0,00 h 0,00 h 0,0 UV-I 10 W/m 19,0 km/h (3 Bft)
09.02.2014 18:00 7,1 C 5,6 C 68 % 994,7 hPa 0,0 l/m 0,00 h 0,00 h 0,0 UV-I 0 W/m 21,3 km/h (4 Bft)
09.02.2014 19:00 6,9 C 5,2 C 68 % 995,3 hPa 0,0 l/m 0,00 h 0,00 h 0,0 UV-I 0 W/m 18,6 km/h (3 Bft)
09.02.2014 20:00 6,6 C 4,7 C 71 % 996,0 hPa 0,0 l/m 0,00 h 0,07 h 0,0 UV-I 0 W/m 15,9 km/h (3 Bft)
09.02.2014 21:00 6,1 C 4,3 C 74 % 996,3 hPa 0,0 l/m 0,00 h 0,03 h 0,0 UV-I 0 W/m 19,0 km/h (3 Bft)
09.02.2014 22:00 5,5 C 3,8 C 76 % 996,4 hPa 0,0 l/m 0,00 h 0,00 h 0,0 UV-I 0 W/m 11,9 km/h (2 Bft)
09.02.2014 23:00 5,3 C 3,6 C 78 % 996,7 hPa 0,0 l/m 0,00 h 0,00 h 0,0 UV-I 0 W/m 13,7 km/h (3 Bft)
Min-Datum _ 03.02.14 03.02.14 09.02.14 07.02.14 - - - - - 03.02.14
_ Min-Zeit 08:28 08:28 14:38 09:26 - - - - - 00:00
Minimum _ -1,1 C -3,3 C 65 % 985,4 hPa - - - - - 0,0 km/h (0 Bft)
Max-Datum _ 07.02.14 07.02.14 03.02.14 03.02.14 06.02.14 03.02.14 05.02.14 03.02.14 09.02.14 07.02.14
_ Max-Zeit 10:02 09:52 03:44 00:10 18:00 09:28 07:58 00:00 11:12 12:44
Maximum _ 12,5 C 10,6 C 96 % 1016,9 hPa 2,4 l/m 0,03 h 0,03 h 0,0 UV-I 411 W/m 85,0 km/h
S (9 Bft)
Durchschnitt _ 6,2 C 4,4 C 83 % 998,8 hPa #11,2 l/m #16:00 h #21:30 h 0,0 UV-I 101 W/m 18,7 km/h (3 Bft)
© 2014 W. Hausmann